Time;durP1;ratioP1;P1;durP2;ratioP2;P2;SDS_P1;SDS_P2;PMS_P1;PMS_P2;Temp;Humidity;BMP_temperature;BMP_pressure;BME280_temperature;BME280_humidity;BME280_pressure;Samples;Min_cycle;Max_cycle;Signal;HPM_P1;HPM_P2
2022/07/30 00:00:08;;;;;;;2.50;2.00;;;;;;;13.71;76.86;99451.78;5050453;28;20033;-64
2022/07/30 00:02:34;;;;;;;3.05;2.60;;;;;;;13.69;77.06;99453.88;5054086;28;20119;-64
2022/07/30 00:04:59;;;;;;;3.55;2.42;;;;;;;13.69;77.08;99440.56;5071043;28;20186;-64
2022/07/30 00:07:25;;;;;;;4.95;2.47;;;;;;;13.64;77.26;99448.53;5052193;28;20048;-63
2022/07/30 00:09:51;;;;;;;6.00;2.38;;;;;;;13.61;77.40;99447.16;5051153;28;20055;-64
2022/07/30 00:12:16;;;;;;;7.13;2.70;;;;;;;13.61;77.83;99446.38;5058413;28;20122;-64
2022/07/30 00:14:42;;;;;;;2.90;2.00;;;;;;;13.58;77.25;99446.88;5070670;28;20075;-64
2022/07/30 00:17:08;;;;;;;3.90;1.90;;;;;;;13.59;77.02;99438.66;5064408;28;20056;-64
2022/07/30 00:19:34;;;;;;;5.72;2.17;;;;;;;13.59;77.73;99438.66;5050745;28;20126;-64
2022/07/30 00:22:00;;;;;;;6.18;2.55;;;;;;;13.58;77.65;99445.00;5054502;28;20514;-63
2022/07/30 00:24:25;;;;;;;3.97;2.47;;;;;;;13.57;77.56;99443.41;5055713;28;20065;-65
2022/07/30 00:26:51;;;;;;;4.60;2.75;;;;;;;13.54;77.26;99443.13;5054945;28;20056;-64
2022/07/30 00:29:17;;;;;;;4.25;3.28;;;;;;;13.53;76.93;99441.50;5054605;28;20379;-64
2022/07/30 00:31:42;;;;;;;5.40;2.17;;;;;;;13.52;77.38;99448.69;5055428;28;21547;-64
2022/07/30 00:34:08;;;;;;;2.63;2.00;;;;;;;13.49;76.87;99446.56;5063787;28;20056;-64
2022/07/30 00:36:34;;;;;;;4.28;3.42;;;;;;;13.52;77.23;99447.91;5054702;28;20041;-64
2022/07/30 00:39:00;;;;;;;3.20;2.30;;;;;;;13.49;77.42;99451.88;5053489;28;20037;-64
2022/07/30 00:41:27;;;;;;;3.88;2.30;;;;;;;13.49;77.58;99446.56;5037095;28;20047;-64
2022/07/30 00:43:53;;;;;;;7.25;2.40;;;;;;;13.49;77.58;99445.75;5054638;28;20487;-63
2022/07/30 00:46:19;;;;;;;3.38;2.30;;;;;;;13.45;77.55;99448.13;5037419;28;20056;-63
2022/07/30 00:48:45;;;;;;;2.42;2.15;;;;;;;13.45;77.38;99442.81;5067801;28;20523;-64
2022/07/30 00:51:11;;;;;;;2.28;2.00;;;;;;;13.50;77.74;99434.03;5053401;28;20045;-65
2022/07/30 00:53:37;;;;;;;2.50;2.08;;;;;;;13.50;77.55;99442.03;5064235;28;20501;-64
2022/07/30 00:56:03;;;;;;;4.03;2.85;;;;;;;13.48;77.80;99438.84;5074729;28;20086;-64
2022/07/30 00:58:29;;;;;;;4.82;2.55;;;;;;;13.48;77.36;99442.28;5065614;28;20080;-64
2022/07/30 01:00:55;;;;;;;3.58;1.90;;;;;;;13.48;77.40;99444.16;5052808;28;20518;-64
2022/07/30 01:03:20;;;;;;;4.35;1.75;;;;;;;13.46;77.39;99441.72;5056981;28;20127;-65
2022/07/30 01:05:46;;;;;;;12.77;8.05;;;;;;;13.45;77.43;99436.69;5052721;28;20406;-64
2022/07/30 01:08:13;;;;;;;6.15;3.35;;;;;;;13.43;77.36;99436.13;5054045;28;20041;-64
2022/07/30 01:10:39;;;;;;;5.55;3.05;;;;;;;13.37;77.08;99436.06;5054353;28;20057;-64
2022/07/30 01:13:05;;;;;;;6.28;2.88;;;;;;;13.36;77.74;99431.81;5054725;28;20414;-64
2022/07/30 01:15:31;;;;;;;3.55;2.00;;;;;;;13.32;77.31;99429.91;5053732;28;20052;-65
2022/07/30 01:17:59;;;;;;;2.80;2.08;;;;;;;13.30;77.14;99429.38;5053782;28;20124;-63
2022/07/30 01:20:32;;;;;;;2.78;2.08;;;;;;;13.30;76.98;99429.38;5024743;28;20086;-64
2022/07/30 01:23:13;;;;;;;4.20;2.20;;;;;;;13.27;77.04;99430.69;5056218;28;20044;-64
2022/07/30 01:25:55;;;;;;;4.07;2.55;;;;;;;13.28;76.70;99426.16;5051515;28;20068;-64
2022/07/30 01:28:25;;;;;;;5.60;2.25;;;;;;;13.30;77.54;99424.84;5052449;28;20047;-64
2022/07/30 01:30:51;;;;;;;4.43;2.25;;;;;;;13.30;77.09;99426.72;5053868;28;20052;-64
2022/07/30 01:33:19;;;;;;;3.88;2.30;;;;;;;13.30;76.70;99424.84;5038780;28;20501;-64
2022/07/30 01:35:46;;;;;;;3.20;2.30;;;;;;;13.32;76.64;99425.38;5039123;28;20563;-64
2022/07/30 01:38:15;;;;;;;4.05;2.50;;;;;;;13.43;76.53;99426.28;5038909;28;20051;-64
2022/07/30 01:40:43;;;;;;;3.05;2.10;;;;;;;13.58;76.15;99431.69;5021147;28;20051;-64
2022/07/30 01:43:09;;;;;;;2.65;2.13;;;;;;;13.80;75.29;99431.59;5018478;28;20513;-64
2022/07/30 01:45:35;;;;;;;4.53;2.30;;;;;;;14.01;74.40;99434.38;5053393;28;20037;-64
2022/07/30 01:48:03;;;;;;;3.88;2.05;;;;;;;14.27;72.99;99429.97;5035414;28;20114;-64
2022/07/30 01:50:29;;;;;;;3.80;2.30;;;;;;;14.46;72.28;99430.28;5039804;28;20075;-65
2022/07/30 01:52:56;;;;;;;4.07;2.28;;;;;;;14.67;71.22;99425.84;5073329;28;20498;-64
2022/07/30 01:55:34;;;;;;;3.13;2.20;;;;;;;14.94;70.07;99423.78;5055250;28;20036;-64
2022/07/30 01:58:02;;;;;;;7.15;2.20;;;;;;;15.19;69.56;99428.34;5051164;28;20437;-64
2022/07/30 02:00:34;;;;;;;3.33;2.20;;;;;;;15.47;68.31;99439.56;5051387;28;20049;-64
2022/07/30 02:02:59;;;;;;;4.50;1.92;;;;;;;15.77;66.88;99429.94;5035191;28;20045;-64
2022/07/30 02:05:27;;;;;;;4.95;2.22;;;;;;;16.07;66.03;99429.06;5018631;28;20083;-64
2022/07/30 02:08:06;;;;;;;2.70;2.28;;;;;;;16.40;64.21;99432.13;5035377;28;20041;-64
2022/07/30 02:10:33;;;;;;;3.37;2.03;;;;;;;16.68;63.36;99430.69;5036934;28;20402;-63
2022/07/30 02:13:03;;;;;;;4.32;2.20;;;;;;;16.98;62.42;99429.72;5034720;28;20466;-64
2022/07/30 02:15:51;;;;;;;7.57;2.35;;;;;;;17.31;60.80;99425.44;5035015;28;20059;-64
2022/07/30 02:18:22;;;;;;;4.55;1.95;;;;;;;17.64;60.00;99431.81;5033878;28;20045;-65
2022/07/30 02:20:54;;;;;;;2.10;1.83;;;;;;;17.99;58.97;99429.09;5072667;28;20390;-64
2022/07/30 02:23:20;;;;;;;4.28;2.15;;;;;;;18.27;57.84;99444.34;5014816;28;20529;-64
2022/07/30 02:25:48;;;;;;;4.10;2.53;;;;;;;18.52;56.90;99439.75;5027466;28;20128;-65
2022/07/30 02:28:16;;;;;;;4.38;2.17;;;;;;;18.75;55.88;99440.81;5032547;28;20045;-64
2022/07/30 02:30:51;;;;;;;3.72;2.05;;;;;;;18.94;55.26;99438.13;5043678;28;20644;-64
2022/07/30 02:33:20;;;;;;;5.28;2.20;;;;;;;19.15;54.39;99438.59;5050581;28;20406;-65
2022/07/30 02:35:49;;;;;;;4.45;2.30;;;;;;;19.43;53.64;99444.88;5018611;28;20068;-64
2022/07/30 02:38:16;;;;;;;3.25;2.10;;;;;;;19.68;53.14;99441.78;5052563;28;20506;-64
2022/07/30 02:40:43;;;;;;;4.35;2.20;;;;;;;19.94;53.04;99452.88;5032175;28;20109;-65
2022/07/30 02:43:10;;;;;;;5.43;2.40;;;;;;;20.23;51.76;99449.09;5053271;28;20535;-64
2022/07/30 02:45:36;;;;;;;6.43;2.03;;;;;;;20.47;50.68;99450.75;5054083;28;20048;-66
2022/07/30 02:48:07;;;;;;;5.05;2.05;;;;;;;20.68;50.16;99445.78;5025776;28;20502;-64
2022/07/30 02:50:33;;;;;;;4.95;2.10;;;;;;;20.89;49.39;99454.22;5037772;28;20041;-65
2022/07/30 02:53:00;;;;;;;3.67;1.90;;;;;;;21.08;49.11;99457.53;5052288;28;20135;-61
2022/07/30 02:55:28;;;;;;;3.30;1.88;;;;;;;21.28;48.59;99453.56;5026556;28;20052;-65
2022/07/30 02:57:54;;;;;;;4.10;1.98;;;;;;;21.48;49.03;99461.19;5021370;28;20051;-65
2022/07/30 03:00:24;;;;;;;4.18;2.10;;;;;;;21.63;48.03;99460.00;5041620;28;20415;-64
2022/07/30 03:02:51;;;;;;;6.93;2.22;;;;;;;21.77;46.88;99462.63;5034389;28;20041;-64
2022/07/30 03:05:18;;;;;;;7.75;2.63;;;;;;;21.93;46.83;99468.41;5034200;28;20461;-64
2022/07/30 03:07:44;;;;;;;5.13;2.00;;;;;;;22.04;46.08;99463.53;5034119;28;20052;-65
2022/07/30 03:10:11;;;;;;;5.15;2.17;;;;;;;22.05;46.07;99465.91;5034261;28;20033;-64
2022/07/30 03:12:38;;;;;;;6.85;2.42;;;;;;;22.16;45.49;99459.13;5047313;28;20382;-64
2022/07/30 03:15:05;;;;;;;3.38;2.17;;;;;;;22.29;45.44;99465.53;5054094;28;20568;-65
2022/07/30 03:17:35;;;;;;;5.78;2.42;;;;;;;22.46;45.27;99472.91;5057725;28;20127;-64
2022/07/30 03:20:03;;;;;;;5.03;2.22;;;;;;;22.62;45.37;99465.16;5041529;28;20068;-64
2022/07/30 03:22:31;;;;;;;6.20;2.00;;;;;;;22.66;44.76;99468.81;5014563;28;20143;-64
2022/07/30 03:24:57;;;;;;;3.15;2.10;;;;;;;22.79;44.69;99470.56;4998039;28;20084;-64
2022/07/30 03:27:23;;;;;;;4.40;2.00;;;;;;;22.94;44.30;99465.81;5066185;28;20077;-63
2022/07/30 03:29:51;;;;;;;6.20;2.47;;;;;;;23.04;44.44;99476.38;5071907;28;20038;-63
2022/07/30 03:32:17;;;;;;;3.05;1.77;;;;;;;23.18;43.87;99476.19;5071709;28;20535;-62
2022/07/30 03:34:44;;;;;;;8.13;2.22;;;;;;;23.31;43.72;99467.91;5036724;28;20500;-63
2022/07/30 03:37:11;;;;;;;2.03;1.80;;;;;;;23.40;43.35;99472.53;5047244;28;20048;-64
2022/07/30 03:39:38;;;;;;;3.75;1.90;;;;;;;23.42;42.71;99478.41;5050037;28;20045;-64
2022/07/30 03:42:05;;;;;;;3.45;1.73;;;;;;;23.40;42.13;99472.53;5017488;28;20041;-65
2022/07/30 03:44:32;;;;;;;6.13;2.50;;;;;;;23.40;42.71;99469.81;5021178;28;20445;-64
2022/07/30 03:46:59;;;;;;;3.33;1.83;;;;;;;23.42;42.59;99478.41;5029532;28;20505;-63
2022/07/30 03:49:25;;;;;;;5.00;1.98;;;;;;;23.33;42.84;99475.72;5036922;28;20044;-65
2022/07/30 03:51:52;;;;;;;3.25;2.10;;;;;;;23.24;42.68;99472.22;5036751;28;20045;-64
2022/07/30 03:54:18;;;;;;;6.60;2.03;;;;;;;23.23;43.40;99473.31;5052992;28;20056;-64
2022/07/30 03:57:10;;;;;;;3.40;2.70;;;;;;;23.35;43.51;99477.00;5035845;28;20052;-63
2022/07/30 03:59:41;;;;;;;5.75;2.05;;;;;;;23.45;43.21;99478.56;5049972;28;20045;-64
2022/07/30 04:02:07;;;;;;;7.18;2.42;;;;;;;23.47;43.45;99472.81;5049970;28;20045;-63
2022/07/30 04:04:59;;;;;;;3.63;2.03;;;;;;;23.64;42.43;99472.78;5057736;28;20126;-63
2022/07/30 04:07:25;;;;;;;4.22;2.22;;;;;;;23.78;41.89;99481.53;5049899;28;20045;-63
2022/07/30 04:09:51;;;;;;;4.18;2.00;;;;;;;23.89;41.07;99470.38;5049934;28;20501;-64
2022/07/30 04:12:36;;;;;;;8.18;2.05;;;;;;;24.00;40.84;99477.81;5051174;28;20051;-66
2022/07/30 04:15:03;;;;;;;5.97;1.80;;;;;;;24.13;41.25;99478.69;5049896;28;20167;-65
2022/07/30 04:17:48;;;;;;;2.88;1.95;;;;;;;24.25;39.91;99480.72;5049790;28;20041;-63
2022/07/30 04:20:23;;;;;;;2.83;1.73;;;;;;;24.28;40.21;99473.84;5014527;28;20037;-67
2022/07/30 04:22:50;;;;;;;4.57;1.88;;;;;;;24.26;39.83;99477.66;5042145;28;20044;-66
2022/07/30 04:25:17;;;;;;;3.10;1.60;;;;;;;24.22;39.46;99482.16;5032818;28;20045;-64
2022/07/30 04:27:43;;;;;;;2.97;1.90;;;;;;;24.02;39.57;99477.47;5049635;28;20037;-64
2022/07/30 04:30:10;;;;;;;4.72;1.90;;;;;;;24.06;40.48;99483.03;5049916;28;20448;-66
2022/07/30 04:32:38;;;;;;;3.67;1.95;;;;;;;24.28;39.80;99488.19;5049508;28;20049;-64
2022/07/30 04:35:07;;;;;;;3.25;1.60;;;;;;;24.29;39.21;99478.94;5045754;28;20414;-65
2022/07/30 04:38:06;;;;;;;6.47;2.10;;;;;;;24.51;40.47;99493.38;5008013;28;20057;-65
2022/07/30 04:40:32;;;;;;;5.63;1.52;;;;;;;24.38;39.29;99482.38;5015971;28;20548;-64
2022/07/30 04:42:58;;;;;;;5.85;2.45;;;;;;;24.48;39.69;99489.41;5013544;28;20046;-66
2022/07/30 04:45:24;;;;;;;5.18;2.25;;;;;;;24.53;40.21;99486.50;5029620;28;20137;-64
2022/07/30 04:47:56;;;;;;;8.18;2.20;;;;;;;24.63;40.11;99498.88;4993345;28;20046;-65
2022/07/30 04:50:45;;;;;;;5.25;1.95;;;;;;;24.73;39.46;99492.28;4986373;28;20097;-65
2022/07/30 04:53:13;;;;;;;6.45;2.42;;;;;;;24.72;40.37;99493.41;4993887;28;20050;-64
2022/07/30 04:55:46;;;;;;;5.05;2.30;;;;;;;24.79;41.01;99496.38;4994567;28;20469;-65
2022/07/30 04:58:13;;;;;;;6.30;1.80;;;;;;;24.94;39.84;99495.78;4993622;28;20398;-65
2022/07/30 05:00:40;;;;;;;8.35;2.30;;;;;;;25.00;39.49;99494.47;5009754;28;20486;-64
2022/07/30 05:03:09;;;;;;;8.32;2.15;;;;;;;24.86;39.32;99494.75;4993402;28;20100;-64
2022/07/30 05:05:35;;;;;;;4.10;1.65;;;;;;;24.61;40.49;99495.69;4977309;28;20038;-64
2022/07/30 05:08:02;;;;;;;5.53;1.85;;;;;;;24.33;40.91;99500.78;4997154;28;20048;-64
2022/07/30 05:10:28;;;;;;;7.75;2.13;;;;;;;24.05;40.38;99503.91;4997109;28;20278;-63
2022/07/30 05:12:55;;;;;;;7.03;2.42;;;;;;;23.89;40.12;99500.16;4997228;28;20411;-62
2022/07/30 05:15:24;;;;;;;4.23;1.97;;;;;;;23.65;41.44;99501.44;4997667;28;20124;-64
2022/07/30 05:17:50;;;;;;;4.82;2.00;;;;;;;23.49;41.03;99501.13;5013306;28;20056;-62
2022/07/30 05:20:17;;;;;;;6.57;2.03;;;;;;;23.33;41.81;99500.06;4997013;28;20037;-64
2022/07/30 05:23:12;;;;;;;4.93;1.70;;;;;;;23.08;41.44;99498.94;4988213;28;20137;-64
2022/07/30 05:25:40;;;;;;;4.15;1.65;;;;;;;23.03;41.44;99509.91;5013072;28;20037;-64
2022/07/30 05:28:32;;;;;;;4.35;1.88;;;;;;;22.78;41.90;99509.53;5011836;28;20054;-64
2022/07/30 05:31:03;;;;;;;6.15;1.92;;;;;;;22.68;43.93;99507.94;5012437;28;20128;-65
2022/07/30 05:33:29;;;;;;;4.43;1.77;;;;;;;22.56;42.82;99510.44;5012551;28;20061;-64
2022/07/30 05:35:54;;;;;;;1.92;1.58;;;;;;;22.50;42.71;99506.31;4996565;28;20128;-64
2022/07/30 05:38:20;;;;;;;3.55;1.40;;;;;;;22.31;42.50;99511.16;5012507;28;20042;-63
2022/07/30 05:41:21;;;;;;;3.40;2.65;;;;;;;22.26;43.55;99519.38;4952979;29;20150;-63
2022/07/30 05:44:00;;;;;;;3.40;1.75;;;;;;;22.23;43.50;99515.41;4990980;28;20077;-64
2022/07/30 05:46:26;;;;;;;4.72;1.30;;;;;;;22.20;42.34;99516.81;5012232;28;20065;-64
2022/07/30 05:48:52;;;;;;;5.55;2.25;;;;;;;22.21;42.51;99520.34;5013460;28;20042;-64
2022/07/30 05:51:19;;;;;;;2.47;1.42;;;;;;;22.26;42.28;99506.69;5012433;28;20129;-64
2022/07/30 05:53:45;;;;;;;5.07;1.55;;;;;;;22.35;41.83;99520.22;4996174;28;20053;-64
2022/07/30 05:56:30;;;;;;;1.77;1.27;;;;;;;22.34;40.90;99519.41;4995977;28;20053;-63
2022/07/30 05:59:15;;;;;;;3.00;1.67;;;;;;;22.49;42.79;99509.31;5012920;28;20053;-65
2022/07/30 06:02:01;;;;;;;2.97;1.50;;;;;;;22.59;42.77;99515.22;5013424;28;20105;-64
2022/07/30 06:04:35;;;;;;;4.57;1.40;;;;;;;22.61;41.11;99518.38;5012123;28;20045;-63
2022/07/30 06:07:03;;;;;;;1.75;1.42;;;;;;;22.56;41.20;99515.03;5012066;28;20419;-64
2022/07/30 06:09:30;;;;;;;4.03;1.55;;;;;;;22.61;42.87;99517.59;5012154;28;20054;-65
2022/07/30 06:11:56;;;;;;;4.32;1.40;;;;;;;22.69;41.96;99516.81;5013191;28;20507;-64
2022/07/30 06:14:22;;;;;;;1.50;1.40;;;;;;;22.51;41.45;99513.28;5013291;28;20053;-64
2022/07/30 06:16:48;;;;;;;2.25;1.33;;;;;;;22.11;41.64;99520.56;5013374;28;20042;-64
2022/07/30 06:19:13;;;;;;;1.90;1.23;;;;;;;21.78;41.29;99515.47;5010871;28;20046;-64
2022/07/30 06:21:43;;;;;;;3.85;1.27;;;;;;;21.42;42.84;99512.88;4995564;28;20046;-64
2022/07/30 06:24:11;;;;;;;3.83;1.20;;;;;;;21.09;42.86;99516.53;4995415;28;20069;-65
2022/07/30 06:26:43;;;;;;;1.00;1.00;;;;;;;21.04;41.51;99513.94;4995521;28;20052;-64
2022/07/30 06:29:10;;;;;;;1.77;1.10;;;;;;;21.10;42.61;99509.25;4995626;28;20034;-65
2022/07/30 06:31:38;;;;;;;5.57;1.40;;;;;;;21.21;43.44;99507.91;5011891;28;20046;-66
2022/07/30 06:34:05;;;;;;;2.13;1.20;;;;;;;21.37;43.05;99511.06;5011921;28;20415;-65
2022/07/30 06:36:36;;;;;;;1.92;1.13;;;;;;;21.45;42.14;99507.66;5011121;28;20655;-65
2022/07/30 06:39:06;;;;;;;1.73;1.33;;;;;;;21.47;41.75;99510.84;5011512;28;20577;-64
2022/07/30 06:41:57;;;;;;;7.43;1.20;;;;;;;21.46;42.85;99513.84;5012481;28;20050;-65
2022/07/30 06:44:28;;;;;;;;;;;;;;;21.57;42.90;99509.78;5011938;28;20065;-64
2022/07/30 06:47:12;;;;;;;2.30;1.50;;;;;;;21.54;42.12;99515.81;5026657;28;19995;-64
2022/07/30 06:49:38;;;;;;;3.00;1.30;;;;;;;21.55;42.86;99512.78;5031165;28;20037;-65
2022/07/30 06:52:06;;;;;;;3.10;1.20;;;;;;;21.45;42.76;99510.34;5014867;28;20557;-64
2022/07/30 06:54:33;;;;;;;2.35;1.13;;;;;;;21.42;44.46;99518.25;5031009;28;20045;-66
2022/07/30 06:57:07;;;;;;;2.88;1.30;;;;;;;21.54;42.58;99511.19;5030908;28;20045;-65
2022/07/30 06:59:33;;;;;;;1.25;1.00;;;;;;;21.63;43.11;99513.16;5030869;28;20045;-65
2022/07/30 07:02:14;;;;;;;2.17;1.30;;;;;;;21.86;43.59;99503.16;5031174;28;20072;-64
2022/07/30 07:05:06;;;;;;;4.68;1.35;;;;;;;22.10;41.66;99516.28;5030917;28;20141;-64
2022/07/30 07:07:35;;;;;;;11.55;2.13;;;;;;;22.32;40.23;99504.63;5032019;28;20077;-64
2022/07/30 07:10:02;;;;;;;1.23;1.13;;;;;;;22.43;39.99;99511.34;5014289;28;20069;-64
2022/07/30 07:12:34;;;;;;;10.95;1.58;;;;;;;22.41;39.50;99508.97;5026694;28;20060;-64
2022/07/30 07:15:00;;;;;;;4.82;1.40;;;;;;;22.49;39.47;99509.31;4997481;28;20120;-65
2022/07/30 07:17:26;;;;;;;3.22;1.10;;;;;;;22.55;38.06;99511.53;5014069;28;20390;-65
2022/07/30 07:20:04;;;;;;;3.38;1.00;;;;;;;22.33;39.58;99509.75;5013932;28;20045;-65
2022/07/30 07:22:40;;;;;;;2.00;1.10;;;;;;;22.31;39.29;99509.25;5030221;28;20103;-64
2022/07/30 07:25:06;;;;;;;4.93;1.30;;;;;;;22.36;38.62;99514.50;5030443;28;20392;-65
2022/07/30 07:27:33;;;;;;;2.92;1.02;;;;;;;22.61;39.13;99512.19;5031009;28;20467;-68
2022/07/30 07:30:01;;;;;;;3.47;1.48;;;;;;;22.48;39.37;99513.13;4996836;28;20059;-65
2022/07/30 07:32:26;;;;;;;2.30;1.25;;;;;;;22.24;37.93;99522.41;5013561;28;20502;-65
2022/07/30 07:34:52;;;;;;;1.48;1.30;;;;;;;21.77;38.15;99519.28;5030131;28;20435;-67
2022/07/30 07:37:18;;;;;;;1.30;1.20;;;;;;;21.26;38.73;99512.38;5031421;28;20127;-66
2022/07/30 07:39:45;;;;;;;5.82;1.30;;;;;;;21.27;38.69;99512.09;5029794;28;20041;-66
2022/07/30 07:42:11;;;;;;;1.38;1.17;;;;;;;21.36;38.67;99516.75;5030101;28;20056;-64
2022/07/30 07:44:40;;;;;;;1.30;1.20;;;;;;;21.26;39.54;99513.16;4997234;28;20037;-64
2022/07/30 07:47:07;;;;;;;6.55;1.35;;;;;;;21.25;39.60;99514.28;5049729;28;20111;-64
2022/07/30 07:49:37;;;;;;;6.13;1.30;;;;;;;21.17;40.34;99504.22;5051348;28;20045;-65
2022/07/30 07:52:04;;;;;;;1.63;1.30;;;;;;;20.98;38.86;99507.09;5033281;28;20049;-64
2022/07/30 07:54:31;;;;;;;2.78;1.50;;;;;;;21.20;40.68;99500.91;5033326;28;20132;-64
2022/07/30 07:56:57;;;;;;;3.83;1.50;;;;;;;21.29;40.30;99507.16;5033441;28;20140;-67
2022/07/30 07:59:35;;;;;;;4.82;1.65;;;;;;;21.08;39.77;99503.34;5033114;28;20041;-64
2022/07/30 08:02:01;;;;;;;1.45;1.30;;;;;;;21.01;39.50;99498.38;5033236;28;20044;-64
2022/07/30 08:04:53;;;;;;;4.55;1.33;;;;;;;21.18;39.41;99491.53;5033396;28;20064;-65
2022/07/30 08:07:42;;;;;;;3.20;1.70;;;;;;;21.42;39.91;99488.59;5042693;28;20576;-65
2022/07/30 08:10:26;;;;;;;2.25;1.50;;;;;;;21.80;41.15;99494.38;5050878;28;20044;-64
2022/07/30 08:13:11;;;;;;;1.77;1.40;;;;;;;21.89;39.54;99489.81;5050765;28;20142;-65
2022/07/30 08:15:55;;;;;;;2.28;1.30;;;;;;;22.09;37.52;99482.28;5036033;28;20052;-65
2022/07/30 08:18:50;;;;;;;4.80;1.50;;;;;;;22.27;39.32;99481.28;4996110;28;20149;-65
2022/07/30 08:21:30;;;;;;;3.15;1.20;;;;;;;22.55;37.67;99481.03;5033423;28;20143;-64
2022/07/30 08:23:56;;;;;;;2.42;1.20;;;;;;;22.89;38.24;99489.19;5033063;28;20549;-65
2022/07/30 08:26:22;;;;;;;4.97;1.60;;;;;;;23.11;37.44;99477.47;5032747;28;20049;-64
2022/07/30 08:28:47;;;;;;;7.78;1.60;;;;;;;23.26;37.16;99481.59;5032596;28;20052;-64
2022/07/30 08:31:13;;;;;;;2.42;1.50;;;;;;;23.17;36.39;99480.00;5033148;28;20041;-66
2022/07/30 08:33:39;;;;;;;2.50;1.35;;;;;;;23.20;36.64;99482.88;5033000;28;20350;-65
2022/07/30 08:36:06;;;;;;;5.60;2.15;;;;;;;22.92;36.43;99486.97;5033060;28;20049;-65
2022/07/30 08:38:32;;;;;;;3.42;1.90;;;;;;;22.53;37.36;99489.47;5032789;28;20075;-65
2022/07/30 08:40:58;;;;;;;2.47;1.50;;;;;;;22.32;36.94;99477.63;5051277;28;20037;-65
2022/07/30 08:43:25;;;;;;;4.13;2.55;;;;;;;22.08;37.45;99478.78;5054687;28;20052;-65
2022/07/30 08:45:52;;;;;;;3.70;2.05;;;;;;;21.98;37.51;99492.56;5020156;28;20138;-64
2022/07/30 08:48:40;;;;;;;2.97;1.50;;;;;;;21.82;37.99;99485.97;5033111;28;20052;-65
2022/07/30 08:51:06;;;;;;;2.25;1.60;;;;;;;21.78;38.07;99488.50;5020380;28;20052;-64
2022/07/30 08:53:32;;;;;;;1.83;1.55;;;;;;;21.66;37.65;99489.06;5054464;28;20053;-65
2022/07/30 08:56:00;;;;;;;2.90;1.50;;;;;;;21.53;38.10;99490.75;5053391;28;20453;-65
2022/07/30 08:58:28;;;;;;;2.53;1.50;;;;;;;21.37;38.06;99488.72;5036713;28;20041;-64
2022/07/30 09:00:55;;;;;;;3.40;1.50;;;;;;;21.18;37.96;99486.97;5054559;28;20155;-65
2022/07/30 09:03:21;;;;;;;3.28;1.30;;;;;;;21.22;38.14;99479.84;5036279;28;20517;-64
2022/07/30 09:05:47;;;;;;;3.13;1.40;;;;;;;21.35;37.89;99478.19;5053979;28;20051;-65
2022/07/30 09:08:13;;;;;;;3.88;2.00;;;;;;;21.48;38.92;99480.06;5036420;28;20041;-65
2022/07/30 09:10:41;;;;;;;1.42;1.30;;;;;;;21.59;37.05;99474.41;5053124;28;20041;-66
2022/07/30 09:13:27;;;;;;;2.33;1.23;;;;;;;21.49;37.32;99464.69;5054065;28;20545;-66
2022/07/30 09:15:55;;;;;;;3.63;1.30;;;;;;;21.52;36.99;99470.25;5036347;28;20046;-65
2022/07/30 09:18:27;;;;;;;1.83;1.20;;;;;;;21.49;36.65;99475.47;5035912;28;20061;-66
2022/07/30 09:20:53;;;;;;;3.53;1.33;;;;;;;21.30;36.65;99462.94;5036152;28;20406;-66
2022/07/30 09:23:19;;;;;;;1.38;1.08;;;;;;;21.25;36.40;99470.34;5036034;28;20140;-65
2022/07/30 09:26:23;;;;;;;1.33;1.20;;;;;;;21.09;36.47;99468.03;4981197;28;20053;-65
2022/07/30 09:29:15;;;;;;;2.10;1.42;;;;;;;21.01;36.69;99462.56;4992174;28;20052;-65
2022/07/30 09:32:08;;;;;;;3.40;1.67;;;;;;;20.96;37.07;99466.16;5039043;28;20122;-65
2022/07/30 09:35:11;;;;;;;1.42;1.33;;;;;;;21.02;37.03;99464.94;5025144;28;20571;-65
2022/07/30 09:37:59;;;;;;;2.72;1.60;;;;;;;21.07;37.32;99470.22;5053419;28;20064;-65
2022/07/30 09:41:00;;;;;;;1.88;1.20;;;;;;;20.98;36.87;99469.34;4991471;28;20042;-65
2022/07/30 09:43:28;;;;;;;1.85;1.27;;;;;;;21.13;36.56;99478.19;5040433;28;20053;-64
2022/07/30 09:46:06;;;;;;;1.60;1.50;;;;;;;21.05;37.32;99469.72;5004409;28;20065;-65
2022/07/30 09:48:31;;;;;;;2.50;1.80;;;;;;;21.00;37.09;99472.56;5035482;28;20127;-65
2022/07/30 09:50:57;;;;;;;4.65;1.63;;;;;;;20.92;38.51;99473.28;5035688;28;20044;-65
2022/07/30 09:53:23;;;;;;;3.47;1.70;;;;;;;21.01;38.73;99474.13;5052816;28;20175;-65
2022/07/30 09:55:49;;;;;;;3.25;1.40;;;;;;;21.24;37.97;99469.56;5053613;28;20179;-65
2022/07/30 09:58:15;;;;;;;4.78;1.67;;;;;;;21.35;37.43;99469.31;5035686;28;20048;-65
2022/07/30 10:00:42;;;;;;;3.97;1.80;;;;;;;21.24;38.13;99468.78;5018917;28;20474;-65
2022/07/30 10:03:43;;;;;;;2.00;1.45;;;;;;;21.12;38.18;99474.72;5040465;28;20045;-65
2022/07/30 10:06:34;;;;;;;2.83;1.23;;;;;;;21.10;36.19;99471.50;5053146;28;20486;-64
2022/07/30 10:09:05;;;;;;;2.03;1.30;;;;;;;21.10;37.07;99471.50;5051809;28;20041;-66
2022/07/30 10:11:31;;;;;;;4.03;1.30;;;;;;;21.14;36.86;99466.31;5035085;28;20048;-65
2022/07/30 10:13:59;;;;;;;1.75;1.10;;;;;;;21.11;35.83;99470.41;5034951;28;20052;-64
2022/07/30 10:16:26;;;;;;;2.25;1.40;;;;;;;21.05;36.47;99469.72;5019043;28;20052;-65
2022/07/30 10:18:56;;;;;;;0.93;0.90;;;;;;;21.07;35.24;99464.81;5034856;28;20045;-65
2022/07/30 10:21:41;;;;;;;3.78;1.38;;;;;;;21.04;35.55;99467.34;5038415;28;20171;-65
2022/07/30 10:24:28;;;;;;;2.78;1.27;;;;;;;21.12;36.02;99463.09;5011622;28;20057;-64
2022/07/30 10:27:15;;;;;;;2.75;1.27;;;;;;;21.42;35.21;99465.13;5041505;28;20111;-64
2022/07/30 10:30:01;;;;;;;2.83;1.90;;;;;;;21.38;35.36;99461.41;5052241;28;20059;-64
2022/07/30 10:32:30;;;;;;;2.17;1.35;;;;;;;21.45;35.17;99461.81;5019156;28;20041;-65
2022/07/30 10:34:56;;;;;;;3.25;1.70;;;;;;;21.54;35.97;99467.25;5052662;28;20133;-65
2022/07/30 10:37:22;;;;;;;1.40;1.30;;;;;;;21.60;35.62;99466.03;5052457;28;20049;-64
2022/07/30 10:40:14;;;;;;;2.47;1.30;;;;;;;21.69;35.14;99468.78;5034598;28;20041;-65
2022/07/30 10:43:04;;;;;;;1.90;1.60;;;;;;;21.69;35.32;99466.06;5052298;28;20053;-64
2022/07/30 10:45:51;;;;;;;3.15;2.05;;;;;;;21.66;35.29;99466.69;5052468;28;20055;-64
2022/07/30 10:48:18;;;;;;;4.82;1.83;;;;;;;21.45;35.68;99466.41;5034462;28;20482;-64
2022/07/30 10:50:58;;;;;;;1.75;1.23;;;;;;;21.40;35.49;99472.72;5034460;28;20048;-65
2022/07/30 10:53:33;;;;;;;;;;;;;;;21.48;36.36;99465.78;5052708;28;20049;-64
2022/07/30 10:56:18;;;;;;;4.35;1.42;;;;;;;21.57;35.75;99471.25;5052582;28;19924;-64
2022/07/30 10:59:07;;;;;;;2.55;2.22;;;;;;;21.71;35.77;99470.06;5052378;28;20068;-65
2022/07/30 11:01:47;;;;;;;2.17;1.20;;;;;;;21.78;36.21;99472.31;5052534;28;20514;-65
2022/07/30 11:04:20;;;;;;;2.75;1.20;;;;;;;21.96;38.32;99462.38;5050959;28;20047;-63
2022/07/30 11:06:47;;;;;;;1.23;1.13;;;;;;;22.26;35.70;99465.38;5052305;28;20091;-65
2022/07/30 11:09:38;;;;;;;2.58;1.10;;;;;;;22.32;36.39;99451.41;5052016;28;20124;-64
2022/07/30 11:12:06;;;;;;;4.60;1.27;;;;;;;22.36;34.45;99455.09;5052959;28;20225;-65
2022/07/30 11:14:47;;;;;;;5.88;1.63;;;;;;;22.42;34.13;99451.16;5052468;28;20041;-65
2022/07/30 11:17:17;;;;;;;2.17;1.30;;;;;;;22.34;34.28;99448.41;5050423;28;20123;-65
2022/07/30 11:20:01;;;;;;;;;;;;;;;22.31;35.32;99451.75;5053039;28;20033;-64
2022/07/30 11:22:37;;;;;;;2.67;2.47;;;;;;;22.18;35.14;99446.16;5051377;28;20389;-65
2022/07/30 11:25:04;;;;;;;4.22;2.17;;;;;;;22.19;34.54;99453.13;5051729;28;20048;-65
2022/07/30 11:27:41;;;;;;;4.47;1.63;;;;;;;22.03;35.20;99448.44;5051577;28;20041;-64
2022/07/30 11:30:16;;;;;;;2.60;1.35;;;;;;;21.84;34.40;99445.97;5059282;28;20032;-65
2022/07/30 11:32:42;;;;;;;1.25;1.05;;;;;;;21.87;34.14;99448.84;5033224;28;20493;-64
2022/07/30 11:35:15;;;;;;;1.30;1.20;;;;;;;22.09;34.69;99442.59;5051398;28;20398;-65
2022/07/30 11:38:14;;;;;;;2.13;1.40;;;;;;;22.17;34.10;99447.25;5051564;28;20044;-65
2022/07/30 11:40:45;;;;;;;2.33;1.30;;;;;;;22.22;35.68;99447.09;5052475;28;20049;-64
2022/07/30 11:43:18;;;;;;;2.03;1.30;;;;;;;22.22;35.85;99441.72;5051158;28;20049;-64
2022/07/30 11:45:49;;;;;;;3.28;1.98;;;;;;;22.20;36.38;99441.22;5051315;28;20044;-64
2022/07/30 11:48:17;;;;;;;3.83;1.70;;;;;;;22.09;35.22;99439.91;5052389;28;20513;-64
2022/07/30 11:50:43;;;;;;;3.63;1.50;;;;;;;22.08;36.15;99449.09;5051365;28;20073;-65
2022/07/30 11:53:16;;;;;;;3.85;1.85;;;;;;;22.08;36.71;99446.41;5050754;28;20422;-65